Station Historical Data
Daily Summary for February 21, 2018 Units:  English    Metric   Both
« Previous Day
Next Day »
Daily Weekly Monthly Yearly Custom
  High: Low: Average:
Temperature: 68.0 °F 33.4 °F 46.4 °F
Dew Point: 54.2 °F 26.7 °F 39.5 °F
Humidity: 89% 60% 78%
Wind Speed: 12.0mph 0.0mph 3.2mph
Wind Gust: 19.0mph - -
Wind- - West
Pressure: 30.63 in 30.02 in -
Precipitation: 0.00 in    
Historical Graphs
 
 
Tabular Data for February 21, 2018
Time Temperature Dew Point Pressure Wind Wind Speed Wind Gust Humidity Rainfall Rate (Hourly)
00:04 67.0 °F 54.0 °F 30.05 in SSW 6.0 mph 15.0 mph 63% 0.00 in
00:09 66.9 °F 53.9 °F 30.05 in SSW 6.0 mph 13.0 mph 63% 0.00 in
00:14 66.9 °F 53.9 °F 30.05 in South 4.0 mph 12.0 mph 63% 0.00 in
00:19 66.7 °F 54.1 °F 30.05 in SSE 6.0 mph 10.0 mph 64% 0.00 in
00:24 66.8 °F 54.2 °F 30.05 in SSW 6.0 mph 14.0 mph 64% 0.00 in
00:29 66.8 °F 53.8 °F 30.05 in SSW 6.0 mph 19.0 mph 63% 0.00 in
00:34 67.1 °F 53.6 °F 30.04 in SSW 7.0 mph 19.0 mph 62% 0.00 in
00:39 67.1 °F 53.6 °F 30.04 in SSW 7.0 mph 18.0 mph 62% 0.00 in
00:44 67.3 °F 53.8 °F 30.04 in WSW 7.0 mph 14.0 mph 62% 0.00 in
00:49 67.3 °F 53.8 °F 30.04 in SW 9.0 mph 14.0 mph 62% 0.00 in
00:54 67.6 °F 54.1 °F 30.04 in SW 6.0 mph 14.0 mph 62% 0.00 in
00:59 67.6 °F 53.7 °F 30.04 in SW 7.0 mph 16.0 mph 61% 0.00 in
01:04 67.7 °F 53.8 °F 30.04 in SW 7.0 mph 16.0 mph 61% 0.00 in
01:09 67.9 °F 54.0 °F 30.04 in WSW 8.0 mph 18.0 mph 61% 0.00 in
01:19 67.9 °F 53.5 °F 30.04 in South 6.0 mph 13.0 mph 60% 0.00 in
01:24 67.9 °F 53.5 °F 30.04 in SW 12.0 mph 16.0 mph 60% 0.00 in
01:29 68.0 °F 53.6 °F 30.04 in SSW 7.0 mph 16.0 mph 60% 0.00 in
01:34 67.8 °F 53.9 °F 30.04 in SW 7.0 mph 11.0 mph 61% 0.00 in
01:39 67.7 °F 53.8 °F 30.04 in West 10.0 mph 15.0 mph 61% 0.00 in
01:44 67.9 °F 53.5 °F 30.03 in SW 10.0 mph 14.0 mph 60% 0.00 in
01:49 68.0 °F 53.6 °F 30.04 in SW 3.0 mph 15.0 mph 60% 0.00 in
01:54 68.0 °F 53.6 °F 30.04 in SSW 4.0 mph 15.0 mph 60% 0.00 in
01:59 68.0 °F 53.6 °F 30.04 in SSW 7.0 mph 15.0 mph 60% 0.00 in
02:04 68.0 °F 53.6 °F 30.04 in SSW 7.0 mph 14.0 mph 60% 0.00 in
02:09 67.7 °F 53.3 °F 30.04 in SW 7.0 mph 14.0 mph 60% 0.00 in
02:14 67.5 °F 53.6 °F 30.04 in SSW 6.0 mph 15.0 mph 61% 0.00 in
02:19 67.6 °F 53.7 °F 30.04 in SSW 5.0 mph 12.0 mph 61% 0.00 in
02:24 67.6 °F 53.7 °F 30.04 in WSW 8.0 mph 10.0 mph 61% 0.00 in
02:29 67.2 °F 53.3 °F 30.04 in SW 6.0 mph 15.0 mph 61% 0.00 in
02:34 67.2 °F 53.3 °F 30.04 in SSW 5.0 mph 14.0 mph 61% 0.00 in
02:39 67.0 °F 53.1 °F 30.04 in SSW 7.0 mph 16.0 mph 61% 0.00 in
02:44 66.8 °F 52.9 °F 30.04 in SSW 7.0 mph 15.0 mph 61% 0.00 in
02:49 66.7 °F 53.3 °F 30.04 in WSW 10.0 mph 12.0 mph 62% 0.00 in
02:54 66.6 °F 53.2 °F 30.04 in SW 5.0 mph 11.0 mph 62% 0.00 in
02:59 66.5 °F 53.1 °F 30.04 in SW 6.0 mph 15.0 mph 62% 0.00 in
03:04 66.3 °F 52.9 °F 30.04 in SW 7.0 mph 15.0 mph 62% 0.00 in
03:09 66.1 °F 52.7 °F 30.04 in SW 8.0 mph 15.0 mph 62% 0.00 in
03:14 65.9 °F 52.9 °F 30.04 in SW 7.0 mph 15.0 mph 63% 0.00 in
03:19 65.6 °F 52.7 °F 30.04 in SSW 8.0 mph 11.0 mph 63% 0.00 in
03:24 65.6 °F 53.1 °F 30.03 in SW 7.0 mph 13.0 mph 64% 0.00 in
03:29 65.6 °F 53.1 °F 30.04 in SW 8.0 mph 15.0 mph 64% 0.00 in
03:34 65.2 °F 52.3 °F 30.05 in SSW 7.0 mph 16.0 mph 63% 0.00 in
03:39 64.1 °F 50.8 °F 30.05 in WSW 7.0 mph 16.0 mph 62% 0.00 in
03:44 62.6 °F 49.8 °F 30.05 in West 5.0 mph 15.0 mph 63% 0.00 in
03:54 60.6 °F 49.2 °F 30.04 in WSW 8.0 mph 14.0 mph 66% 0.00 in
03:59 60.1 °F 49.1 °F 30.05 in SSW 6.0 mph 11.0 mph 67% 0.00 in
04:04 59.8 °F 49.2 °F 30.04 in WSW 7.0 mph 10.0 mph 68% 0.00 in
04:09 59.5 °F 48.9 °F 30.04 in WSW 6.0 mph 10.0 mph 68% 0.00 in
04:14 59.2 °F 48.6 °F 30.04 in WSW 3.0 mph 9.0 mph 68% 0.00 in
04:19 58.8 °F 48.6 °F 30.05 in WSW 6.0 mph 10.0 mph 69% 0.00 in
04:29 57.9 °F 48.9 °F 30.04 in SW 5.0 mph 6.0 mph 72% 0.00 in
04:34 57.6 °F 49.0 °F 30.04 in WSW 3.0 mph 6.0 mph 73% 0.00 in
04:39 57.4 °F 49.2 °F 30.04 in WSW 3.0 mph 6.0 mph 74% 0.00 in
04:44 57.4 °F 49.2 °F 30.04 in WSW 3.0 mph 8.0 mph 74% 0.00 in
04:49 57.2 °F 49.0 °F 30.04 in WSW 3.0 mph 8.0 mph 74% 0.00 in
04:54 57.2 °F 49.0 °F 30.03 in WSW 3.0 mph 7.0 mph 74% 0.00 in
04:59 57.1 °F 48.9 °F 30.03 in WSW 3.0 mph 7.0 mph 74% 0.00 in
05:04 57.0 °F 48.8 °F 30.03 in WSW 4.0 mph 8.0 mph 74% 0.00 in
05:09 56.7 °F 48.5 °F 30.03 in WSW 4.0 mph 8.0 mph 74% 0.00 in
05:14 56.3 °F 48.5 °F 30.03 in WSW 3.0 mph 5.0 mph 75% 0.00 in
05:19 56.1 °F 48.6 °F 30.03 in WSW 1.0 mph 5.0 mph 76% 0.00 in
05:24 55.8 °F 48.3 °F 30.03 in WSW 1.0 mph 2.0 mph 76% 0.00 in
05:29 55.3 °F 48.2 °F 30.03 in SW 2.0 mph 4.0 mph 77% 0.00 in
05:34 55.1 °F 48.0 °F 30.03 in South 4.0 mph 5.0 mph 77% 0.00 in
05:39 55.0 °F 48.3 °F 30.03 in SSW 3.0 mph 7.0 mph 78% 0.00 in
05:44 54.5 °F 47.4 °F 30.03 in SSW 3.0 mph 7.0 mph 77% 0.00 in
05:49 54.1 °F 47.4 °F 30.03 in SSW 2.0 mph 5.0 mph 78% 0.00 in
05:54 53.5 °F 47.1 °F 30.03 in SSW 2.0 mph 5.0 mph 79% 0.00 in
05:59 52.8 °F 46.5 °F 30.03 in SSW 2.0 mph 5.0 mph 79% 0.00 in
06:04 52.1 °F 46.1 °F 30.02 in South 3.0 mph 5.0 mph 80% 0.00 in
06:09 51.7 °F 45.7 °F 30.02 in South 3.0 mph 5.0 mph 80% 0.00 in
06:14 51.3 °F 45.7 °F 30.02 in South 1.0 mph 3.0 mph 81% 0.00 in
06:19 51.1 °F 45.5 °F 30.03 in Calm   3.0 mph 81% 0.00 in
06:24 51.0 °F 45.7 °F 30.02 in South 1.0 mph 5.0 mph 82% 0.00 in
06:29 50.8 °F 45.5 °F 30.02 in SSW 2.0 mph 4.0 mph 82% 0.00 in
06:34 51.0 °F 46.0 °F 30.02 in SSW 1.0 mph 5.0 mph 83% 0.00 in
06:39 51.2 °F 46.2 °F 30.02 in SSW 2.0 mph 5.0 mph 83% 0.00 in
06:44 51.4 °F 46.1 °F 30.02 in SSW 2.0 mph 5.0 mph 82% 0.00 in
06:49 51.5 °F 46.2 °F 30.02 in SW 2.0 mph 4.0 mph 82% 0.00 in
06:54 51.5 °F 46.2 °F 30.02 in SW 1.0 mph 4.0 mph 82% 0.00 in
06:59 51.9 °F 46.9 °F 30.02 in SW 2.0 mph 5.0 mph 83% 0.00 in
07:04 52.5 °F 47.5 °F 30.02 in SSW 1.0 mph 5.0 mph 83% 0.00 in
07:09 52.8 °F 47.5 °F 30.02 in SW 1.0 mph 3.0 mph 82% 0.00 in
07:14 53.3 °F 47.9 °F 30.02 in SW 1.0 mph 3.0 mph 82% 0.00 in
07:19 53.7 °F 48.3 °F 30.05 in WNW 5.0 mph 12.0 mph 82% 0.00 in
07:24 54.5 °F 48.8 °F 30.04 in WSW 2.0 mph 16.0 mph 81% 0.00 in
07:29 55.0 °F 48.9 °F 30.07 in NNW 6.0 mph 12.0 mph 80% 0.00 in
07:34 55.4 °F 49.0 °F 30.08 in NW 3.0 mph 13.0 mph 79% 0.00 in
07:39 55.4 °F 49.0 °F 30.07 in West 6.0 mph 12.0 mph 79% 0.00 in
07:44 55.2 °F 48.8 °F 30.08 in WNW 4.0 mph 8.0 mph 79% 0.00 in
07:49 55.0 °F 48.6 °F 30.08 in WNW 4.0 mph 8.0 mph 79% 0.00 in
07:54 55.0 °F 48.9 °F 30.09 in WNW 4.0 mph 7.0 mph 80% 0.00 in
07:59 55.0 °F 48.9 °F 30.10 in WNW 4.0 mph 7.0 mph 80% 0.00 in
08:04 55.0 °F 48.9 °F 30.10 in WNW 3.0 mph 7.0 mph 80% 0.00 in
08:09 55.3 °F 49.6 °F 30.10 in West 3.0 mph 7.0 mph 81% 0.00 in
08:14 55.7 °F 50.3 °F 30.10 in NW 3.0 mph 10.0 mph 82% 0.00 in
08:19 56.3 °F 51.2 °F 30.10 in NNE 6.0 mph 15.0 mph 83% 0.00 in
08:24 56.7 °F 51.6 °F 30.10 in NW 5.0 mph 15.0 mph 83% 0.00 in
08:29 56.8 °F 52.0 °F 30.11 in WNW 5.0 mph 11.0 mph 84% 0.00 in
08:34 56.9 °F 52.1 °F 30.11 in NW 2.0 mph 8.0 mph 84% 0.00 in
08:39 56.8 °F 52.0 °F 30.11 in NW 2.0 mph 10.0 mph 84% 0.00 in
08:44 56.7 °F 51.9 °F 30.11 in NW 3.0 mph 10.0 mph 84% 0.00 in
08:49 56.6 °F 52.1 °F 30.11 in NNW 4.0 mph 7.0 mph 85% 0.00 in
08:54 56.5 °F 52.0 °F 30.11 in NNW 3.0 mph 8.0 mph 85% 0.00 in
08:59 56.3 °F 51.8 °F 30.11 in NNW 4.0 mph 11.0 mph 85% 0.00 in
09:04 56.0 °F 51.9 °F 30.12 in NNW 4.0 mph 11.0 mph 86% 0.00 in
09:09 55.7 °F 51.6 °F 30.12 in NNW 4.0 mph 9.0 mph 86% 0.00 in
09:14 55.4 °F 51.6 °F 30.13 in North 6.0 mph 8.0 mph 87% 0.00 in
09:19 52.6 °F 47.3 °F 30.16 in NNW 5.0 mph 19.0 mph 82% 0.00 in
09:24 49.1 °F 43.8 °F 30.17 in NNW 8.0 mph 19.0 mph 82% 0.00 in
09:29 46.3 °F 40.8 °F 30.18 in North 8.0 mph 17.0 mph 81% 0.01 in
09:34 44.1 °F 39.0 °F 30.19 in North 4.0 mph 16.0 mph 82% 0.02 in
09:39 42.7 °F 38.2 °F 30.19 in North 6.0 mph 12.0 mph 84% 0.02 in
09:44 41.9 °F 37.7 °F 30.19 in NNW 12.0 mph 12.0 mph 85% 0.02 in
09:49 41.2 °F 37.3 °F 30.20 in WNW 6.0 mph 17.0 mph 86% 0.03 in
09:54 40.7 °F 36.8 °F 30.21 in North 8.0 mph 17.0 mph 86% 0.03 in
09:59 40.4 °F 36.8 °F 30.22 in North 4.0 mph 13.0 mph 87% 0.03 in
10:04 40.3 °F 36.7 °F 30.23 in NW 3.0 mph 10.0 mph 87% 0.03 in
10:09 40.2 °F 36.9 °F 30.24 in North 2.0 mph 9.0 mph 88% 0.03 in
10:14 39.9 °F 36.3 °F 30.24 in NNE 6.0 mph 13.0 mph 87% 0.03 in
10:19 39.6 °F 36.3 °F 30.25 in NNW 5.0 mph 11.0 mph 88% 0.03 in
10:24 39.1 °F 35.6 °F 30.25 in North 6.0 mph 12.0 mph 87% 0.04 in
10:29 38.9 °F 35.6 °F 30.26 in North 6.0 mph 13.0 mph 88% 0.03 in
10:34 38.8 °F 35.6 °F 30.26 in North 6.0 mph 13.0 mph 88% 0.02 in
10:39 38.9 °F 35.6 °F 30.26 in North 5.0 mph 13.0 mph 88% 0.03 in
10:44 38.8 °F 35.6 °F 30.27 in NNE 7.0 mph 14.0 mph 88% 0.03 in
10:49 38.9 °F 35.9 °F 30.27 in NNW 6.0 mph 9.0 mph 89% 0.02 in
10:54 38.9 °F 35.9 °F 30.27 in North 5.0 mph 10.0 mph 89% 0.02 in
10:59 39.0 °F 36.0 °F 30.28 in NNW 1.0 mph 8.0 mph 89% 0.02 in
11:04 38.9 °F 35.6 °F 30.28 in NNW 6.0 mph 11.0 mph 88% 0.02 in
11:09 38.8 °F 35.6 °F 30.29 in NNW 2.0 mph 11.0 mph 88% 0.02 in
11:14 38.8 °F 35.8 °F 30.29 in NNW 4.0 mph 8.0 mph 89% 0.02 in
11:19 38.8 °F 35.8 °F 30.30 in North 1.0 mph 5.0 mph 89% 0.02 in
11:24 38.9 °F 35.9 °F 30.31 in North 3.0 mph 6.0 mph 89% 0.02 in
11:29 38.9 °F 35.9 °F 30.31 in North 3.0 mph 6.0 mph 89% 0.02 in
11:34 38.9 °F 35.9 °F 30.31 in NNW 3.0 mph 6.0 mph 89% 0.02 in
11:39 39.1 °F 36.1 °F 30.31 in NNW 2.0 mph 6.0 mph 89% 0.01 in
11:44 39.1 °F 36.1 °F 30.31 in NNW 3.0 mph 4.0 mph 89% 0.02 in
11:49 39.5 °F 36.5 °F 30.32 in NNW 3.0 mph 4.0 mph 89% 0.02 in
11:54 39.6 °F 36.6 °F 30.32 in North 1.0 mph 4.0 mph 89% 0.02 in
11:59 39.6 °F 36.6 °F 30.32 in North 2.0 mph 7.0 mph 89% 0.02 in
12:04 39.6 °F 36.3 °F 30.32 in NNW 4.0 mph 7.0 mph 88% 0.02 in
12:09 39.5 °F 36.2 °F 30.32 in NW 4.0 mph 8.0 mph 88% 0.02 in
12:14 39.3 °F 35.8 °F 30.33 in NNW 4.0 mph 7.0 mph 87% 0.02 in
12:19 39.5 °F 36.0 °F 30.33 in NW 3.0 mph 6.0 mph 87% 0.02 in
12:24 39.6 °F 36.0 °F 30.34 in WNW 2.0 mph 5.0 mph 87% 0.01 in
12:29 39.8 °F 36.2 °F 30.34 in NW 3.0 mph 9.0 mph 87% 0.01 in
12:34 39.6 °F 36.0 °F 30.35 in NW 3.0 mph 9.0 mph 87% 0.01 in
12:39 39.4 °F 35.6 °F 30.35 in NW 4.0 mph 6.0 mph 86% 0.01 in
12:44 39.5 °F 36.0 °F 30.35 in NW 2.0 mph 4.0 mph 87% 0.00 in
12:49 39.9 °F 36.6 °F 30.36 in WNW 2.0 mph 4.0 mph 88% 0.00 in
12:54 39.6 °F 36.3 °F 30.36 in WNW 2.0 mph 7.0 mph 88% 0.00 in
12:59 39.4 °F 35.9 °F 30.35 in WSW 3.0 mph 4.0 mph 87% 0.00 in
13:04 39.5 °F 36.2 °F 30.36 in West 2.0 mph 5.0 mph 88% 0.00 in
13:09 39.7 °F 36.4 °F 30.37 in West 3.0 mph 5.0 mph 88% 0.00 in
13:14 39.5 °F 36.2 °F 30.37 in West 3.0 mph 6.0 mph 88% 0.00 in
13:19 39.4 °F 36.1 °F 30.38 in WNW 4.0 mph 8.0 mph 88% 0.00 in
13:24 39.5 °F 36.2 °F 30.38 in WNW 1.0 mph 7.0 mph 88% 0.00 in
13:29 39.3 °F 36.0 °F 30.38 in West 4.0 mph 7.0 mph 88% 0.00 in
13:34 39.5 °F 36.2 °F 30.39 in WNW 4.0 mph 7.0 mph 88% 0.00 in
13:39 39.8 °F 36.5 °F 30.39 in West 4.0 mph 7.0 mph 88% 0.01 in
13:44 39.9 °F 36.3 °F 30.39 in West 4.0 mph 8.0 mph 87% 0.01 in
13:49 39.8 °F 36.2 °F 30.39 in West 2.0 mph 7.0 mph 87% 0.01 in
13:54 39.9 °F 36.3 °F 30.39 in WNW 2.0 mph 6.0 mph 87% 0.01 in
13:59 40.0 °F 36.4 °F 30.40 in West 3.0 mph 7.0 mph 87% 0.01 in
14:04 40.0 °F 36.2 °F 30.40 in West 4.0 mph 6.0 mph 86% 0.01 in
14:09 40.0 °F 36.2 °F 30.41 in West 3.0 mph 8.0 mph 86% 0.01 in
14:14 40.0 °F 36.2 °F 30.42 in NW 1.0 mph 10.0 mph 86% 0.01 in
14:19 40.1 °F 36.0 °F 30.42 in West 9.0 mph 9.0 mph 85% 0.01 in
14:24 39.9 °F 35.8 °F 30.42 in WNW 3.0 mph 11.0 mph 85% 0.01 in
14:29 39.6 °F 35.2 °F 30.42 in West 8.0 mph 10.0 mph 84% 0.01 in
14:34 39.7 °F 35.0 °F 30.43 in West 6.0 mph 12.0 mph 83% 0.01 in
14:39 40.3 °F 35.5 °F 30.43 in West 6.0 mph 12.0 mph 83% 0.00 in
14:44 40.4 °F 35.0 °F 30.43 in WNW 5.0 mph 11.0 mph 81% 0.00 in
14:49 40.1 °F 34.7 °F 30.43 in West 5.0 mph 11.0 mph 81% 0.00 in
14:54 40.0 °F 34.0 °F 30.43 in West 5.0 mph 9.0 mph 79% 0.00 in
14:59 40.1 °F 34.4 °F 30.44 in West 4.0 mph 9.0 mph 80% 0.00 in
15:04 40.0 °F 34.3 °F 30.43 in WSW 2.0 mph 10.0 mph 80% 0.00 in
15:09 40.2 °F 34.8 °F 30.44 in WNW 1.0 mph 6.0 mph 81% 0.00 in
15:14 40.4 °F 34.7 °F 30.44 in West 1.0 mph 8.0 mph 80% 0.00 in
15:19 40.3 °F 34.3 °F 30.44 in WNW 3.0 mph 6.0 mph 79% 0.00 in
15:24 40.5 °F 34.5 °F 30.44 in WNW 3.0 mph 6.0 mph 79% 0.00 in
15:30 40.7 °F 35.0 °F 30.45 in West 1.0 mph 7.0 mph 80% 0.00 in
15:39 40.7 °F 35.0 °F 30.45 in NW 3.0 mph 7.0 mph 80% 0.00 in
15:44 40.6 °F 34.9 °F 30.45 in WNW 2.0 mph 5.0 mph 80% 0.00 in
15:49 40.6 °F 35.2 °F 30.46 in West 2.0 mph 5.0 mph 81% 0.00 in
15:54 40.3 °F 34.9 °F 30.46 in WNW 3.0 mph 8.0 mph 81% 0.00 in
15:59 39.8 °F 34.4 °F 30.46 in NW 3.0 mph 8.0 mph 81% 0.00 in
16:05 39.8 °F 34.8 °F 30.47 in NNW 3.0 mph 8.0 mph 82% 0.00 in
16:14 39.5 °F 34.5 °F 30.48 in WNW 3.0 mph 8.0 mph 82% 0.00 in
16:19 39.3 °F 33.6 °F 30.48 in NNW 7.0 mph 8.0 mph 80% 0.00 in
16:24 39.3 °F 33.6 °F 30.48 in NW 4.0 mph 8.0 mph 80% 0.00 in
16:29 39.4 °F 33.1 °F 30.48 in NNW 3.0 mph 6.0 mph 78% 0.00 in
16:34 39.3 °F 32.7 °F 30.48 in NNW 2.0 mph 6.0 mph 77% 0.00 in
16:39 39.3 °F 32.7 °F 30.49 in NW 1.0 mph 7.0 mph 77% 0.00 in
16:44 39.2 °F 32.6 °F 30.49 in NW 2.0 mph 5.0 mph 77% 0.00 in
16:54 39.2 °F 32.6 °F 30.50 in NW 2.0 mph 5.0 mph 77% 0.00 in
16:59 39.0 °F 32.4 °F 30.50 in NW 2.0 mph 7.0 mph 77% 0.00 in
17:04 38.9 °F 32.3 °F 30.50 in NNW 4.0 mph 5.0 mph 77% 0.00 in
17:09 38.8 °F 32.2 °F 30.50 in Calm   5.0 mph 77% 0.00 in
17:14 38.6 °F 32.0 °F 30.50 in NNW 2.0 mph 4.0 mph 77% 0.00 in
17:19 38.5 °F 31.9 °F 30.50 in WNW 2.0 mph 5.0 mph 77% 0.00 in
17:24 38.4 °F 31.8 °F 30.51 in WNW 1.0 mph 4.0 mph 77% 0.00 in
17:29 38.3 °F 31.7 °F 30.51 in Calm   4.0 mph 77% 0.00 in
17:34 38.2 °F 31.3 °F 30.52 in Calm   6.0 mph 76% 0.00 in
17:39 38.0 °F 30.8 °F 30.52 in NW 2.0 mph 4.0 mph 75% 0.00 in
17:44 37.9 °F 30.7 °F 30.53 in NW 2.0 mph 5.0 mph 75% 0.00 in
17:49 37.9 °F 30.7 °F 30.53 in NW 1.0 mph 5.0 mph 75% 0.00 in
17:54 37.9 °F 30.7 °F 30.53 in WNW 1.0 mph 4.0 mph 75% 0.00 in
17:59 37.7 °F 30.2 °F 30.53 in WNW 1.0 mph 3.0 mph 74% 0.00 in
18:04 37.7 °F 30.5 °F 30.53 in WNW 2.0 mph 3.0 mph 75% 0.00 in
18:09 37.6 °F 30.1 °F 30.54 in WNW 2.0 mph 3.0 mph 74% 0.00 in
18:14 37.5 °F 30.0 °F 30.54 in Calm   4.0 mph 74% 0.00 in
18:19 37.4 °F 30.2 °F 30.54 in WNW 1.0 mph 4.0 mph 75% 0.00 in
18:24 37.4 °F 30.2 °F 30.54 in Calm     75% 0.00 in
18:29 37.4 °F 30.2 °F 30.55 in Calm     75% 0.00 in
18:34 37.2 °F 30.0 °F 30.55 in Calm   4.0 mph 75% 0.00 in
18:39 37.1 °F 29.6 °F 30.55 in NW 1.0 mph 3.0 mph 74% 0.00 in
18:44 37.0 °F 29.5 °F 30.55 in NW 2.0 mph 3.0 mph 74% 0.00 in
18:49 37.0 °F 29.5 °F 30.56 in NW 1.0 mph 3.0 mph 74% 0.00 in
18:54 36.9 °F 29.4 °F 30.56 in NW 1.0 mph 4.0 mph 74% 0.00 in
18:59 36.8 °F 29.0 °F 30.56 in NW 2.0 mph 4.0 mph 73% 0.00 in
19:04 36.8 °F 29.3 °F 30.56 in Calm   1.0 mph 74% 0.00 in
19:09 36.6 °F 29.1 °F 30.56 in Calm     74% 0.00 in
19:14 36.5 °F 29.0 °F 30.56 in Calm     74% 0.00 in
19:19 36.4 °F 29.2 °F 30.56 in Calm     75% 0.00 in
19:24 36.3 °F 29.1 °F 30.57 in Calm   2.0 mph 75% 0.00 in
19:29 36.3 °F 29.1 °F 30.56 in Calm   2.0 mph 75% 0.00 in
19:34 36.2 °F 29.0 °F 30.57 in Calm     75% 0.00 in
19:39 36.2 °F 28.7 °F 30.56 in NW 1.0 mph 3.0 mph 74% 0.00 in
19:44 36.2 °F 29.0 °F 30.56 in NW 2.0 mph 2.0 mph 75% 0.00 in
19:49 36.2 °F 29.0 °F 30.57 in Calm   2.0 mph 75% 0.00 in
19:54 36.1 °F 28.9 °F 30.56 in NW 1.0 mph 3.0 mph 75% 0.00 in
19:59 36.1 °F 28.9 °F 30.57 in Calm   3.0 mph 75% 0.00 in
20:04 36.1 °F 28.9 °F 30.57 in Calm     75% 0.00 in
20:09 36.0 °F 28.8 °F 30.58 in Calm     75% 0.00 in
20:14 36.0 °F 28.8 °F 30.58 in Calm     75% 0.00 in
20:19 35.9 °F 29.1 °F 30.58 in Calm     76% 0.00 in
20:24 35.7 °F 28.9 °F 30.58 in Calm     76% 0.00 in
20:29 35.5 °F 29.0 °F 30.58 in Calm     77% 0.00 in
20:34 35.4 °F 28.9 °F 30.59 in Calm     77% 0.00 in
20:39 35.3 °F 29.1 °F 30.58 in Calm     78% 0.00 in
20:44 35.3 °F 28.8 °F 30.59 in Calm     77% 0.00 in
20:49 35.2 °F 28.7 °F 30.59 in Calm     77% 0.00 in
20:54 35.1 °F 28.9 °F 30.59 in Calm     78% 0.00 in
20:59 34.9 °F 28.7 °F 30.59 in Calm     78% 0.00 in
21:04 34.7 °F 28.5 °F 30.59 in Calm     78% 0.00 in
21:09 34.6 °F 28.4 °F 30.60 in Calm     78% 0.00 in
21:14 34.5 °F 28.7 °F 30.60 in Calm     79% 0.00 in
21:19 34.3 °F 28.5 °F 30.60 in Calm     79% 0.00 in
21:24 34.1 °F 28.3 °F 30.60 in Calm     79% 0.00 in
21:29 34.0 °F 28.2 °F 30.60 in Calm     79% 0.00 in
21:34 33.9 °F 28.4 °F 30.60 in Calm     80% 0.00 in
21:39 33.7 °F 28.2 °F 30.60 in Calm     80% 0.00 in
21:44 33.5 °F 28.0 °F 30.60 in Calm     80% 0.00 in
21:49 33.4 °F 27.9 °F 30.60 in Calm     80% 0.00 in
21:54 33.5 °F 28.3 °F 30.60 in Calm     81% 0.00 in
21:59 33.6 °F 28.4 °F 30.60 in Calm     81% 0.00 in
22:04 33.9 °F 28.7 °F 30.61 in Calm     81% 0.00 in
22:09 34.3 °F 29.1 °F 30.60 in Calm     81% 0.00 in
22:14 34.4 °F 29.2 °F 30.60 in Calm     81% 0.00 in
22:19 34.6 °F 29.4 °F 30.60 in North 2.0 mph 4.0 mph 81% 0.00 in
22:24 34.8 °F 29.3 °F 30.60 in Calm   4.0 mph 80% 0.00 in
22:29 34.8 °F 29.3 °F 30.60 in Calm     80% 0.00 in
22:34 34.8 °F 29.3 °F 30.60 in North 1.0 mph 1.0 mph 80% 0.00 in
22:39 34.8 °F 29.3 °F 30.60 in North 1.0 mph 3.0 mph 80% 0.00 in
22:44 34.8 °F 29.3 °F 30.60 in North 1.0 mph 3.0 mph 80% 0.00 in
22:49 34.8 °F 29.3 °F 30.61 in Calm   3.0 mph 80% 0.00 in
22:54 34.8 °F 29.6 °F 30.61 in Calm     81% 0.00 in
22:59 34.7 °F 29.5 °F 30.61 in North 3.0 mph 3.0 mph 81% 0.00 in
23:04 34.5 °F 29.3 °F 30.61 in North 1.0 mph 4.0 mph 81% 0.00 in
23:09 34.3 °F 29.1 °F 30.61 in North 2.0 mph 2.0 mph 81% 0.00 in
23:14 34.3 °F 29.1 °F 30.61 in North 2.0 mph 4.0 mph 81% 0.00 in
23:19 34.1 °F 28.6 °F 30.62 in North 2.0 mph 4.0 mph 80% 0.00 in
23:24 34.0 °F 28.5 °F 30.62 in North 2.0 mph 5.0 mph 80% 0.00 in
23:29 33.8 °F 28.0 °F 30.62 in NNE 2.0 mph 4.0 mph 79% 0.00 in
23:34 33.8 °F 27.7 °F 30.62 in North 1.0 mph 4.0 mph 78% 0.00 in
23:39 33.8 °F 27.4 °F 30.62 in North 1.0 mph 4.0 mph 77% 0.00 in
23:44 33.8 °F 27.4 °F 30.63 in North 2.0 mph 7.0 mph 77% 0.00 in
23:49 33.7 °F 26.9 °F 30.63 in NNW 2.0 mph 7.0 mph 76% 0.00 in
23:54 33.6 °F 26.8 °F 30.63 in North 3.0 mph 7.0 mph 76% 0.00 in
23:59 33.5 °F 26.7 °F 30.63 in North 3.0 mph 5.0 mph 76% 0.00 in
Buffalo, New York, USA
Compliments of Weather Underground - 2.5 mb